Alpha, Ohio
Current Conditions -  °F | °C
As of 4:58 AM on Saturday 29 Nov 2014 (Local Time) from KFFO Reporting Station
Overcast Overcast  
Wind Chill: 27°   Ceiling: 16000
Heat Index: 35°   Visibility: 10mi
Dew Point: 20°   Wind: 10mph
Humidity: 55%   Direction: 180°S
Pressure: 30.02"   Gusts: NA
Location:  39.71°N, 84.02°W
Report Text: KFFO 290958Z AUTO 18009KT 10SM BKN160 OVC180 02/M07 A3002 RMK AO2 SLP176 T00171066
Loading
Personal Weather Stations






























Interactive Weather Map New forecast layout! Learn more

10-Day Weather Forecast

Advertisements
Track Severe Weather on mobile